sensor_id;sensor_type;location;lat;lon;timestamp;P1;durP1;ratioP1;P2;durP2;ratioP2
67776;SDS011;54576;52.020;5.536;2023-07-02T00:01:43;23.00;;;6.82;;
67776;SDS011;54576;52.020;5.536;2023-07-02T00:04:08;24.60;;;7.20;;
67776;SDS011;54576;52.020;5.536;2023-07-02T00:06:35;31.55;;;7.57;;
67776;SDS011;54576;52.020;5.536;2023-07-02T00:09:05;25.98;;;6.57;;
67776;SDS011;54576;52.020;5.536;2023-07-02T00:11:31;26.55;;;7.63;;
67776;SDS011;54576;52.020;5.536;2023-07-02T00:13:57;20.50;;;5.80;;
67776;SDS011;54576;52.020;5.536;2023-07-02T00:16:22;19.05;;;6.78;;
67776;SDS011;54576;52.020;5.536;2023-07-02T00:18:48;22.60;;;6.45;;
67776;SDS011;54576;52.020;5.536;2023-07-02T00:21:17;23.92;;;7.15;;
67776;SDS011;54576;52.020;5.536;2023-07-02T00:23:44;18.70;;;6.68;;
67776;SDS011;54576;52.020;5.536;2023-07-02T00:26:09;14.27;;;5.63;;
67776;SDS011;54576;52.020;5.536;2023-07-02T00:28:35;17.73;;;6.10;;
67776;SDS011;54576;52.020;5.536;2023-07-02T00:31:01;17.67;;;5.97;;
67776;SDS011;54576;52.020;5.536;2023-07-02T00:33:27;13.00;;;5.20;;
67776;SDS011;54576;52.020;5.536;2023-07-02T00:35:54;19.60;;;6.40;;
67776;SDS011;54576;52.020;5.536;2023-07-02T00:38:19;16.42;;;5.22;;
67776;SDS011;54576;52.020;5.536;2023-07-02T00:40:46;18.98;;;5.50;;
67776;SDS011;54576;52.020;5.536;2023-07-02T00:43:11;25.58;;;7.15;;
67776;SDS011;54576;52.020;5.536;2023-07-02T00:45:38;18.70;;;6.25;;
67776;SDS011;54576;52.020;5.536;2023-07-02T00:48:05;17.00;;;6.38;;
67776;SDS011;54576;52.020;5.536;2023-07-02T00:50:31;9.98;;;5.40;;
67776;SDS011;54576;52.020;5.536;2023-07-02T00:52:57;20.95;;;6.95;;
67776;SDS011;54576;52.020;5.536;2023-07-02T00:55:23;20.10;;;6.28;;
67776;SDS011;54576;52.020;5.536;2023-07-02T00:57:49;16.23;;;6.65;;
67776;SDS011;54576;52.020;5.536;2023-07-02T01:00:15;19.35;;;6.70;;
67776;SDS011;54576;52.020;5.536;2023-07-02T01:02:41;17.60;;;6.30;;
67776;SDS011;54576;52.020;5.536;2023-07-02T01:05:18;26.02;;;6.93;;
67776;SDS011;54576;52.020;5.536;2023-07-02T01:07:47;20.15;;;7.13;;
67776;SDS011;54576;52.020;5.536;2023-07-02T01:10:12;19.63;;;7.07;;
67776;SDS011;54576;52.020;5.536;2023-07-02T01:12:38;22.05;;;6.93;;
67776;SDS011;54576;52.020;5.536;2023-07-02T01:15:05;24.90;;;7.45;;
67776;SDS011;54576;52.020;5.536;2023-07-02T01:17:31;21.92;;;7.20;;
67776;SDS011;54576;52.020;5.536;2023-07-02T01:20:08;18.15;;;7.53;;
67776;SDS011;54576;52.020;5.536;2023-07-02T01:22:34;15.50;;;6.55;;
67776;SDS011;54576;52.020;5.536;2023-07-02T01:25:00;20.08;;;7.05;;
67776;SDS011;54576;52.020;5.536;2023-07-02T01:27:30;23.08;;;7.43;;
67776;SDS011;54576;52.020;5.536;2023-07-02T01:29:56;27.58;;;7.07;;
67776;SDS011;54576;52.020;5.536;2023-07-02T01:32:22;20.55;;;6.82;;
67776;SDS011;54576;52.020;5.536;2023-07-02T01:34:48;18.73;;;7.28;;
67776;SDS011;54576;52.020;5.536;2023-07-02T01:37:14;17.88;;;6.97;;
67776;SDS011;54576;52.020;5.536;2023-07-02T01:39:41;22.08;;;7.28;;
67776;SDS011;54576;52.020;5.536;2023-07-02T01:42:10;21.30;;;7.00;;
67776;SDS011;54576;52.020;5.536;2023-07-02T01:44:38;26.77;;;7.78;;
67776;SDS011;54576;52.020;5.536;2023-07-02T01:47:04;24.98;;;6.90;;
67776;SDS011;54576;52.020;5.536;2023-07-02T01:49:30;22.27;;;7.47;;
67776;SDS011;54576;52.020;5.536;2023-07-02T01:51:56;14.63;;;6.43;;
67776;SDS011;54576;52.020;5.536;2023-07-02T01:54:22;20.60;;;6.45;;
67776;SDS011;54576;52.020;5.536;2023-07-02T01:56:49;22.60;;;7.15;;
67776;SDS011;54576;52.020;5.536;2023-07-02T01:59:15;16.52;;;7.20;;
67776;SDS011;54576;52.020;5.536;2023-07-02T02:01:41;22.65;;;7.00;;
67776;SDS011;54576;52.020;5.536;2023-07-02T02:04:08;18.48;;;7.28;;
67776;SDS011;54576;52.020;5.536;2023-07-02T02:06:34;19.92;;;6.72;;
67776;SDS011;54576;52.020;5.536;2023-07-02T02:09:00;23.75;;;7.13;;
67776;SDS011;54576;52.020;5.536;2023-07-02T02:11:28;18.70;;;7.55;;
67776;SDS011;54576;52.020;5.536;2023-07-02T02:13:53;18.85;;;7.60;;
67776;SDS011;54576;52.020;5.536;2023-07-02T02:16:19;24.98;;;7.53;;
67776;SDS011;54576;52.020;5.536;2023-07-02T02:18:45;22.55;;;6.80;;
67776;SDS011;54576;52.020;5.536;2023-07-02T02:21:11;20.10;;;7.00;;
67776;SDS011;54576;52.020;5.536;2023-07-02T02:23:36;20.08;;;6.90;;
67776;SDS011;54576;52.020;5.536;2023-07-02T02:26:02;21.88;;;6.90;;
67776;SDS011;54576;52.020;5.536;2023-07-02T02:28:27;20.63;;;6.97;;
67776;SDS011;54576;52.020;5.536;2023-07-02T02:30:53;20.17;;;7.13;;
67776;SDS011;54576;52.020;5.536;2023-07-02T02:33:18;20.83;;;7.10;;
67776;SDS011;54576;52.020;5.536;2023-07-02T02:35:44;19.77;;;7.43;;
67776;SDS011;54576;52.020;5.536;2023-07-02T02:38:11;24.20;;;7.47;;
67776;SDS011;54576;52.020;5.536;2023-07-02T02:40:37;20.08;;;6.80;;
67776;SDS011;54576;52.020;5.536;2023-07-02T02:43:03;19.38;;;6.90;;
67776;SDS011;54576;52.020;5.536;2023-07-02T02:45:29;16.25;;;6.38;;
67776;SDS011;54576;52.020;5.536;2023-07-02T02:47:54;23.08;;;6.60;;
67776;SDS011;54576;52.020;5.536;2023-07-02T02:50:20;23.50;;;7.07;;
67776;SDS011;54576;52.020;5.536;2023-07-02T02:52:46;23.10;;;6.95;;
67776;SDS011;54576;52.020;5.536;2023-07-02T02:55:11;23.67;;;6.80;;
67776;SDS011;54576;52.020;5.536;2023-07-02T02:57:37;23.50;;;7.20;;
67776;SDS011;54576;52.020;5.536;2023-07-02T03:00:03;19.58;;;7.05;;
67776;SDS011;54576;52.020;5.536;2023-07-02T03:02:30;21.00;;;6.43;;
67776;SDS011;54576;52.020;5.536;2023-07-02T03:04:55;27.10;;;8.20;;
67776;SDS011;54576;52.020;5.536;2023-07-02T03:07:22;17.50;;;6.13;;
67776;SDS011;54576;52.020;5.536;2023-07-02T03:09:47;15.88;;;6.60;;
67776;SDS011;54576;52.020;5.536;2023-07-02T03:12:13;28.30;;;7.57;;
67776;SDS011;54576;52.020;5.536;2023-07-02T03:14:39;24.27;;;7.22;;
67776;SDS011;54576;52.020;5.536;2023-07-02T03:17:04;20.20;;;6.93;;
67776;SDS011;54576;52.020;5.536;2023-07-02T03:19:30;15.48;;;6.70;;
67776;SDS011;54576;52.020;5.536;2023-07-02T03:21:55;17.15;;;7.15;;
67776;SDS011;54576;52.020;5.536;2023-07-02T03:24:21;20.98;;;7.25;;
67776;SDS011;54576;52.020;5.536;2023-07-02T03:26:47;22.95;;;6.80;;
67776;SDS011;54576;52.020;5.536;2023-07-02T03:29:12;27.08;;;7.65;;
67776;SDS011;54576;52.020;5.536;2023-07-02T03:31:38;23.38;;;6.68;;
67776;SDS011;54576;52.020;5.536;2023-07-02T03:34:05;17.40;;;6.82;;
67776;SDS011;54576;52.020;5.536;2023-07-02T03:36:32;24.00;;;6.88;;
67776;SDS011;54576;52.020;5.536;2023-07-02T03:38:58;24.98;;;6.45;;
67776;SDS011;54576;52.020;5.536;2023-07-02T03:41:24;28.33;;;7.07;;
67776;SDS011;54576;52.020;5.536;2023-07-02T03:43:50;25.45;;;7.40;;
67776;SDS011;54576;52.020;5.536;2023-07-02T03:46:18;20.30;;;7.25;;
67776;SDS011;54576;52.020;5.536;2023-07-02T03:48:44;19.38;;;6.65;;
67776;SDS011;54576;52.020;5.536;2023-07-02T03:51:10;22.30;;;7.32;;
67776;SDS011;54576;52.020;5.536;2023-07-02T03:53:37;24.25;;;7.90;;
67776;SDS011;54576;52.020;5.536;2023-07-02T03:56:03;23.92;;;7.00;;
67776;SDS011;54576;52.020;5.536;2023-07-02T03:58:29;31.02;;;7.28;;
67776;SDS011;54576;52.020;5.536;2023-07-02T04:00:54;19.63;;;7.10;;
67776;SDS011;54576;52.020;5.536;2023-07-02T04:03:20;19.10;;;6.68;;
67776;SDS011;54576;52.020;5.536;2023-07-02T04:05:45;18.25;;;6.93;;
67776;SDS011;54576;52.020;5.536;2023-07-02T04:08:14;29.48;;;7.38;;
67776;SDS011;54576;52.020;5.536;2023-07-02T04:13:06;16.02;;;6.45;;
67776;SDS011;54576;52.020;5.536;2023-07-02T04:15:32;20.45;;;6.97;;
67776;SDS011;54576;52.020;5.536;2023-07-02T04:17:58;23.85;;;7.03;;
67776;SDS011;54576;52.020;5.536;2023-07-02T04:20:23;29.90;;;7.53;;
67776;SDS011;54576;52.020;5.536;2023-07-02T04:22:50;23.55;;;7.47;;
67776;SDS011;54576;52.020;5.536;2023-07-02T04:25:16;27.50;;;7.95;;
67776;SDS011;54576;52.020;5.536;2023-07-02T04:27:44;19.60;;;7.05;;
67776;SDS011;54576;52.020;5.536;2023-07-02T04:30:11;26.08;;;7.13;;
67776;SDS011;54576;52.020;5.536;2023-07-02T04:32:37;19.13;;;6.82;;
67776;SDS011;54576;52.020;5.536;2023-07-02T04:35:09;26.35;;;6.90;;
67776;SDS011;54576;52.020;5.536;2023-07-02T04:37:36;23.80;;;7.00;;
67776;SDS011;54576;52.020;5.536;2023-07-02T04:40:02;26.48;;;7.35;;
67776;SDS011;54576;52.020;5.536;2023-07-02T04:42:41;21.48;;;7.28;;
67776;SDS011;54576;52.020;5.536;2023-07-02T04:45:13;23.92;;;7.55;;
67776;SDS011;54576;52.020;5.536;2023-07-02T04:47:42;23.80;;;7.65;;
67776;SDS011;54576;52.020;5.536;2023-07-02T04:50:08;28.85;;;7.50;;
67776;SDS011;54576;52.020;5.536;2023-07-02T04:52:34;25.52;;;8.30;;
67776;SDS011;54576;52.020;5.536;2023-07-02T04:55:00;26.65;;;7.63;;
67776;SDS011;54576;52.020;5.536;2023-07-02T04:57:26;20.63;;;7.93;;
67776;SDS011;54576;52.020;5.536;2023-07-02T04:59:53;25.92;;;7.75;;
67776;SDS011;54576;52.020;5.536;2023-07-02T05:02:19;28.67;;;8.65;;
67776;SDS011;54576;52.020;5.536;2023-07-02T05:04:45;27.33;;;7.85;;
67776;SDS011;54576;52.020;5.536;2023-07-02T05:07:11;27.20;;;7.90;;
67776;SDS011;54576;52.020;5.536;2023-07-02T05:09:36;21.42;;;8.10;;
67776;SDS011;54576;52.020;5.536;2023-07-02T05:12:02;22.58;;;7.63;;
67776;SDS011;54576;52.020;5.536;2023-07-02T05:14:28;33.85;;;8.35;;
67776;SDS011;54576;52.020;5.536;2023-07-02T05:16:53;28.63;;;8.63;;
67776;SDS011;54576;52.020;5.536;2023-07-02T05:19:19;27.10;;;8.30;;
67776;SDS011;54576;52.020;5.536;2023-07-02T05:21:45;26.48;;;8.82;;
67776;SDS011;54576;52.020;5.536;2023-07-02T05:24:10;30.30;;;8.40;;
67776;SDS011;54576;52.020;5.536;2023-07-02T05:26:36;26.98;;;8.00;;
67776;SDS011;54576;52.020;5.536;2023-07-02T05:29:01;30.23;;;9.02;;
67776;SDS011;54576;52.020;5.536;2023-07-02T05:31:27;24.90;;;7.93;;
67776;SDS011;54576;52.020;5.536;2023-07-02T05:33:53;34.50;;;8.80;;
67776;SDS011;54576;52.020;5.536;2023-07-02T05:36:19;25.13;;;7.60;;
67776;SDS011;54576;52.020;5.536;2023-07-02T05:38:45;29.30;;;7.97;;
67776;SDS011;54576;52.020;5.536;2023-07-02T05:41:11;27.33;;;8.88;;
67776;SDS011;54576;52.020;5.536;2023-07-02T05:43:43;28.20;;;8.30;;
67776;SDS011;54576;52.020;5.536;2023-07-02T05:46:09;25.13;;;7.30;;
67776;SDS011;54576;52.020;5.536;2023-07-02T05:48:34;31.90;;;8.93;;
67776;SDS011;54576;52.020;5.536;2023-07-02T05:51:00;31.98;;;8.73;;
67776;SDS011;54576;52.020;5.536;2023-07-02T05:53:25;26.98;;;8.43;;
67776;SDS011;54576;52.020;5.536;2023-07-02T05:55:51;29.15;;;8.43;;
67776;SDS011;54576;52.020;5.536;2023-07-02T05:58:17;25.75;;;8.13;;
67776;SDS011;54576;52.020;5.536;2023-07-02T06:00:42;25.08;;;7.63;;
67776;SDS011;54576;52.020;5.536;2023-07-02T06:03:13;29.80;;;8.82;;
67776;SDS011;54576;52.020;5.536;2023-07-02T06:05:48;29.40;;;9.23;;
67776;SDS011;54576;52.020;5.536;2023-07-02T06:08:17;20.23;;;7.68;;
67776;SDS011;54576;52.020;5.536;2023-07-02T06:10:45;26.38;;;8.20;;
67776;SDS011;54576;52.020;5.536;2023-07-02T06:13:12;26.85;;;8.05;;
67776;SDS011;54576;52.020;5.536;2023-07-02T06:15:38;26.55;;;8.80;;
67776;SDS011;54576;52.020;5.536;2023-07-02T06:18:03;26.58;;;8.13;;
67776;SDS011;54576;52.020;5.536;2023-07-02T06:20:29;32.28;;;8.80;;
67776;SDS011;54576;52.020;5.536;2023-07-02T06:22:54;33.33;;;8.35;;
67776;SDS011;54576;52.020;5.536;2023-07-02T06:25:20;17.92;;;7.18;;
67776;SDS011;54576;52.020;5.536;2023-07-02T06:27:46;26.15;;;7.97;;
67776;SDS011;54576;52.020;5.536;2023-07-02T06:30:13;25.88;;;7.85;;
67776;SDS011;54576;52.020;5.536;2023-07-02T06:32:39;21.17;;;7.45;;
67776;SDS011;54576;52.020;5.536;2023-07-02T06:35:05;31.63;;;7.60;;
67776;SDS011;54576;52.020;5.536;2023-07-02T06:37:31;27.98;;;8.15;;
67776;SDS011;54576;52.020;5.536;2023-07-02T06:39:58;19.00;;;7.40;;
67776;SDS011;54576;52.020;5.536;2023-07-02T06:42:24;23.52;;;7.20;;
67776;SDS011;54576;52.020;5.536;2023-07-02T06:44:50;23.35;;;7.20;;
67776;SDS011;54576;52.020;5.536;2023-07-02T06:47:16;26.00;;;7.47;;
67776;SDS011;54576;52.020;5.536;2023-07-02T06:49:44;25.20;;;7.70;;
67776;SDS011;54576;52.020;5.536;2023-07-02T06:52:10;27.40;;;7.65;;
67776;SDS011;54576;52.020;5.536;2023-07-02T06:54:35;18.15;;;7.22;;
67776;SDS011;54576;52.020;5.536;2023-07-02T06:57:01;20.13;;;7.43;;
67776;SDS011;54576;52.020;5.536;2023-07-02T06:59:26;21.02;;;6.95;;
67776;SDS011;54576;52.020;5.536;2023-07-02T07:01:52;20.75;;;7.65;;
67776;SDS011;54576;52.020;5.536;2023-07-02T07:04:18;23.58;;;7.00;;
67776;SDS011;54576;52.020;5.536;2023-07-02T07:06:43;23.17;;;6.57;;
67776;SDS011;54576;52.020;5.536;2023-07-02T07:09:15;21.05;;;7.60;;
67776;SDS011;54576;52.020;5.536;2023-07-02T07:11:42;26.33;;;7.38;;
67776;SDS011;54576;52.020;5.536;2023-07-02T07:14:08;21.58;;;7.00;;
67776;SDS011;54576;52.020;5.536;2023-07-02T07:16:34;19.58;;;7.07;;
67776;SDS011;54576;52.020;5.536;2023-07-02T07:19:00;30.60;;;7.07;;
67776;SDS011;54576;52.020;5.536;2023-07-02T07:21:26;29.23;;;7.50;;
67776;SDS011;54576;52.020;5.536;2023-07-02T07:23:51;13.68;;;6.13;;
67776;SDS011;54576;52.020;5.536;2023-07-02T07:26:19;21.95;;;6.97;;
67776;SDS011;54576;52.020;5.536;2023-07-02T07:28:48;20.10;;;6.47;;
67776;SDS011;54576;52.020;5.536;2023-07-02T07:31:14;17.88;;;5.70;;
67776;SDS011;54576;52.020;5.536;2023-07-02T07:33:40;21.83;;;6.05;;
67776;SDS011;54576;52.020;5.536;2023-07-02T07:36:06;17.02;;;6.57;;
67776;SDS011;54576;52.020;5.536;2023-07-02T07:38:31;19.63;;;6.20;;
67776;SDS011;54576;52.020;5.536;2023-07-02T07:40:57;21.17;;;6.63;;
67776;SDS011;54576;52.020;5.536;2023-07-02T07:43:24;13.93;;;6.15;;
67776;SDS011;54576;52.020;5.536;2023-07-02T07:45:49;21.30;;;6.35;;
67776;SDS011;54576;52.020;5.536;2023-07-02T07:48:15;19.10;;;5.75;;
67776;SDS011;54576;52.020;5.536;2023-07-02T07:50:41;21.05;;;5.95;;
67776;SDS011;54576;52.020;5.536;2023-07-02T07:53:07;21.02;;;5.95;;
67776;SDS011;54576;52.020;5.536;2023-07-02T07:55:32;23.90;;;5.47;;
67776;SDS011;54576;52.020;5.536;2023-07-02T07:57:58;12.25;;;4.80;;
67776;SDS011;54576;52.020;5.536;2023-07-02T08:00:23;16.33;;;5.53;;
67776;SDS011;54576;52.020;5.536;2023-07-02T08:02:50;14.88;;;5.75;;
67776;SDS011;54576;52.020;5.536;2023-07-02T08:05:17;14.38;;;4.57;;
67776;SDS011;54576;52.020;5.536;2023-07-02T08:07:43;21.08;;;5.95;;
67776;SDS011;54576;52.020;5.536;2023-07-02T08:10:08;14.45;;;4.82;;
67776;SDS011;54576;52.020;5.536;2023-07-02T08:12:35;20.40;;;5.07;;
67776;SDS011;54576;52.020;5.536;2023-07-02T08:15:01;15.30;;;5.13;;
67776;SDS011;54576;52.020;5.536;2023-07-02T08:17:27;17.48;;;5.05;;
67776;SDS011;54576;52.020;5.536;2023-07-02T08:22:21;16.55;;;5.88;;
67776;SDS011;54576;52.020;5.536;2023-07-02T08:24:46;8.68;;;4.45;;
67776;SDS011;54576;52.020;5.536;2023-07-02T08:27:14;11.95;;;4.78;;
67776;SDS011;54576;52.020;5.536;2023-07-02T08:29:43;13.48;;;4.90;;
67776;SDS011;54576;52.020;5.536;2023-07-02T08:32:09;15.90;;;4.68;;
67776;SDS011;54576;52.020;5.536;2023-07-02T08:34:35;4.80;;;3.22;;
67776;SDS011;54576;52.020;5.536;2023-07-02T08:37:01;10.55;;;4.88;;
67776;SDS011;54576;52.020;5.536;2023-07-02T08:39:26;17.88;;;5.43;;
67776;SDS011;54576;52.020;5.536;2023-07-02T08:41:52;15.60;;;4.97;;
67776;SDS011;54576;52.020;5.536;2023-07-02T08:44:19;15.02;;;5.20;;
67776;SDS011;54576;52.020;5.536;2023-07-02T08:46:46;12.68;;;5.28;;
67776;SDS011;54576;52.020;5.536;2023-07-02T08:49:15;12.52;;;5.47;;
67776;SDS011;54576;52.020;5.536;2023-07-02T08:51:44;11.27;;;4.82;;
67776;SDS011;54576;52.020;5.536;2023-07-02T08:54:10;11.82;;;5.05;;
67776;SDS011;54576;52.020;5.536;2023-07-02T08:56:36;15.88;;;5.43;;
67776;SDS011;54576;52.020;5.536;2023-07-02T08:59:05;16.40;;;5.35;;
67776;SDS011;54576;52.020;5.536;2023-07-02T09:01:52;13.35;;;4.75;;
67776;SDS011;54576;52.020;5.536;2023-07-02T09:04:21;15.10;;;4.63;;
67776;SDS011;54576;52.020;5.536;2023-07-02T09:06:49;11.45;;;4.70;;
67776;SDS011;54576;52.020;5.536;2023-07-02T09:09:30;17.00;;;4.70;;
67776;SDS011;54576;52.020;5.536;2023-07-02T09:11:56;15.18;;;4.85;;
67776;SDS011;54576;52.020;5.536;2023-07-02T09:14:25;10.50;;;3.70;;
67776;SDS011;54576;52.020;5.536;2023-07-02T09:17:01;15.48;;;5.03;;
67776;SDS011;54576;52.020;5.536;2023-07-02T09:19:28;15.52;;;4.30;;
67776;SDS011;54576;52.020;5.536;2023-07-02T09:21:56;7.68;;;3.50;;
67776;SDS011;54576;52.020;5.536;2023-07-02T09:24:24;9.50;;;3.70;;
67776;SDS011;54576;52.020;5.536;2023-07-02T09:26:53;16.27;;;4.70;;
67776;SDS011;54576;52.020;5.536;2023-07-02T09:31:55;8.95;;;3.88;;
67776;SDS011;54576;52.020;5.536;2023-07-02T09:34:29;12.15;;;3.78;;
67776;SDS011;54576;52.020;5.536;2023-07-02T09:36:56;6.70;;;3.45;;
67776;SDS011;54576;52.020;5.536;2023-07-02T09:39:25;9.27;;;4.00;;
67776;SDS011;54576;52.020;5.536;2023-07-02T09:41:51;7.25;;;3.38;;
67776;SDS011;54576;52.020;5.536;2023-07-02T09:44:17;9.05;;;4.03;;
67776;SDS011;54576;52.020;5.536;2023-07-02T09:46:56;13.77;;;3.65;;
67776;SDS011;54576;52.020;5.536;2023-07-02T09:49:33;7.95;;;3.00;;
67776;SDS011;54576;52.020;5.536;2023-07-02T09:52:03;12.43;;;3.88;;
67776;SDS011;54576;52.020;5.536;2023-07-02T09:54:30;5.93;;;2.42;;
67776;SDS011;54576;52.020;5.536;2023-07-02T09:56:59;6.70;;;2.78;;
67776;SDS011;54576;52.020;5.536;2023-07-02T09:59:25;15.63;;;3.90;;
67776;SDS011;54576;52.020;5.536;2023-07-02T10:01:51;8.80;;;3.45;;
67776;SDS011;54576;52.020;5.536;2023-07-02T10:04:18;9.60;;;4.10;;
67776;SDS011;54576;52.020;5.536;2023-07-02T10:06:48;7.38;;;3.30;;
67776;SDS011;54576;52.020;5.536;2023-07-02T10:09:15;14.45;;;3.67;;
67776;SDS011;54576;52.020;5.536;2023-07-02T10:11:42;7.43;;;2.97;;
67776;SDS011;54576;52.020;5.536;2023-07-02T10:14:08;6.82;;;3.17;;
67776;SDS011;54576;52.020;5.536;2023-07-02T10:16:34;9.50;;;3.38;;
67776;SDS011;54576;52.020;5.536;2023-07-02T10:19:13;8.60;;;3.45;;
67776;SDS011;54576;52.020;5.536;2023-07-02T10:21:39;9.05;;;3.90;;
67776;SDS011;54576;52.020;5.536;2023-07-02T10:26:37;6.57;;;3.20;;
67776;SDS011;54576;52.020;5.536;2023-07-02T10:29:02;4.57;;;3.00;;
67776;SDS011;54576;52.020;5.536;2023-07-02T10:31:31;9.60;;;2.97;;
67776;SDS011;54576;52.020;5.536;2023-07-02T10:33:56;7.68;;;2.95;;
67776;SDS011;54576;52.020;5.536;2023-07-02T10:36:25;11.68;;;3.28;;
67776;SDS011;54576;52.020;5.536;2023-07-02T10:38:51;9.75;;;3.38;;
67776;SDS011;54576;52.020;5.536;2023-07-02T10:41:23;6.15;;;3.40;;
67776;SDS011;54576;52.020;5.536;2023-07-02T10:43:49;6.07;;;2.90;;
67776;SDS011;54576;52.020;5.536;2023-07-02T10:46:21;9.80;;;2.45;;
67776;SDS011;54576;52.020;5.536;2023-07-02T10:48:51;9.15;;;2.72;;
67776;SDS011;54576;52.020;5.536;2023-07-02T10:51:23;9.98;;;3.17;;
67776;SDS011;54576;52.020;5.536;2023-07-02T10:54:01;7.15;;;3.05;;
67776;SDS011;54576;52.020;5.536;2023-07-02T10:56:29;6.63;;;2.90;;
67776;SDS011;54576;52.020;5.536;2023-07-02T10:58:55;8.75;;;3.22;;
67776;SDS011;54576;52.020;5.536;2023-07-02T11:01:22;3.78;;;2.53;;
67776;SDS011;54576;52.020;5.536;2023-07-02T11:03:55;6.97;;;2.50;;
67776;SDS011;54576;52.020;5.536;2023-07-02T11:06:29;6.93;;;3.25;;
67776;SDS011;54576;52.020;5.536;2023-07-02T11:08:57;7.88;;;3.30;;
67776;SDS011;54576;52.020;5.536;2023-07-02T11:11:23;5.88;;;3.10;;
67776;SDS011;54576;52.020;5.536;2023-07-02T11:13:49;11.35;;;3.08;;
67776;SDS011;54576;52.020;5.536;2023-07-02T11:18:54;5.70;;;3.10;;
67776;SDS011;54576;52.020;5.536;2023-07-02T11:21:33;9.30;;;3.63;;
67776;SDS011;54576;52.020;5.536;2023-07-02T11:24:03;4.53;;;2.72;;
67776;SDS011;54576;52.020;5.536;2023-07-02T11:26:35;8.90;;;3.55;;
67776;SDS011;54576;52.020;5.536;2023-07-02T11:29:01;8.63;;;3.17;;
67776;SDS011;54576;52.020;5.536;2023-07-02T11:31:27;7.00;;;3.28;;
67776;SDS011;54576;52.020;5.536;2023-07-02T11:33:52;10.95;;;3.65;;
67776;SDS011;54576;52.020;5.536;2023-07-02T11:36:19;8.75;;;3.25;;
67776;SDS011;54576;52.020;5.536;2023-07-02T11:38:48;8.98;;;3.00;;
67776;SDS011;54576;52.020;5.536;2023-07-02T11:41:15;9.98;;;3.53;;
67776;SDS011;54576;52.020;5.536;2023-07-02T11:43:41;9.57;;;3.67;;
67776;SDS011;54576;52.020;5.536;2023-07-02T11:46:06;8.15;;;3.42;;
67776;SDS011;54576;52.020;5.536;2023-07-02T11:48:32;11.10;;;3.63;;
67776;SDS011;54576;52.020;5.536;2023-07-02T11:50:57;7.53;;;3.92;;
67776;SDS011;54576;52.020;5.536;2023-07-02T11:53:23;10.07;;;3.42;;
67776;SDS011;54576;52.020;5.536;2023-07-02T11:55:49;7.05;;;3.47;;
67776;SDS011;54576;52.020;5.536;2023-07-02T11:58:15;10.05;;;3.47;;
67776;SDS011;54576;52.020;5.536;2023-07-02T12:00:41;9.00;;;3.28;;
67776;SDS011;54576;52.020;5.536;2023-07-02T12:03:06;8.18;;;3.60;;
67776;SDS011;54576;52.020;5.536;2023-07-02T12:05:32;10.55;;;3.88;;
67776;SDS011;54576;52.020;5.536;2023-07-02T12:07:57;6.40;;;3.28;;
67776;SDS011;54576;52.020;5.536;2023-07-02T12:10:23;8.27;;;3.28;;
67776;SDS011;54576;52.020;5.536;2023-07-02T12:12:49;12.05;;;3.53;;
67776;SDS011;54576;52.020;5.536;2023-07-02T12:15:14;7.72;;;3.15;;
67776;SDS011;54576;52.020;5.536;2023-07-02T12:17:40;9.20;;;3.33;;
67776;SDS011;54576;52.020;5.536;2023-07-02T12:20:06;7.38;;;3.53;;
67776;SDS011;54576;52.020;5.536;2023-07-02T12:22:32;11.80;;;4.35;;
67776;SDS011;54576;52.020;5.536;2023-07-02T12:24:57;10.25;;;3.90;;
67776;SDS011;54576;52.020;5.536;2023-07-02T12:27:23;9.00;;;3.70;;
67776;SDS011;54576;52.020;5.536;2023-07-02T12:29:50;10.27;;;3.75;;
67776;SDS011;54576;52.020;5.536;2023-07-02T12:32:16;8.23;;;3.75;;
67776;SDS011;54576;52.020;5.536;2023-07-02T12:34:41;8.70;;;4.13;;
67776;SDS011;54576;52.020;5.536;2023-07-02T12:37:07;12.38;;;4.30;;
67776;SDS011;54576;52.020;5.536;2023-07-02T12:39:32;10.70;;;3.63;;
67776;SDS011;54576;52.020;5.536;2023-07-02T12:41:58;14.98;;;3.47;;
67776;SDS011;54576;52.020;5.536;2023-07-02T12:44:24;7.95;;;3.70;;
67776;SDS011;54576;52.020;5.536;2023-07-02T12:46:49;6.55;;;3.50;;
67776;SDS011;54576;52.020;5.536;2023-07-02T12:49:15;8.77;;;3.65;;
67776;SDS011;54576;52.020;5.536;2023-07-02T12:51:41;9.82;;;3.53;;
67776;SDS011;54576;52.020;5.536;2023-07-02T12:54:06;6.03;;;3.55;;
67776;SDS011;54576;52.020;5.536;2023-07-02T12:56:32;13.45;;;3.97;;
67776;SDS011;54576;52.020;5.536;2023-07-02T12:58:58;10.00;;;3.63;;
67776;SDS011;54576;52.020;5.536;2023-07-02T13:01:23;11.15;;;4.13;;
67776;SDS011;54576;52.020;5.536;2023-07-02T13:03:49;5.75;;;3.25;;
67776;SDS011;54576;52.020;5.536;2023-07-02T13:06:15;9.13;;;3.70;;
67776;SDS011;54576;52.020;5.536;2023-07-02T13:08:41;13.18;;;3.72;;
67776;SDS011;54576;52.020;5.536;2023-07-02T13:11:07;7.97;;;3.80;;
67776;SDS011;54576;52.020;5.536;2023-07-02T13:13:33;7.85;;;3.65;;
67776;SDS011;54576;52.020;5.536;2023-07-02T13:16:13;9.95;;;3.85;;
67776;SDS011;54576;52.020;5.536;2023-07-02T13:18:38;15.30;;;3.85;;
67776;SDS011;54576;52.020;5.536;2023-07-02T13:21:04;10.65;;;4.07;;
67776;SDS011;54576;52.020;5.536;2023-07-02T13:23:30;9.30;;;4.05;;
67776;SDS011;54576;52.020;5.536;2023-07-02T13:25:56;6.85;;;3.75;;
67776;SDS011;54576;52.020;5.536;2023-07-02T13:28:22;12.85;;;4.47;;
67776;SDS011;54576;52.020;5.536;2023-07-02T13:30:48;12.32;;;4.47;;
67776;SDS011;54576;52.020;5.536;2023-07-02T13:33:14;7.43;;;4.15;;
67776;SDS011;54576;52.020;5.536;2023-07-02T13:35:40;9.70;;;3.95;;
67776;SDS011;54576;52.020;5.536;2023-07-02T13:38:06;12.10;;;4.10;;
67776;SDS011;54576;52.020;5.536;2023-07-02T13:40:32;14.38;;;4.38;;
67776;SDS011;54576;52.020;5.536;2023-07-02T13:42:58;6.95;;;4.03;;
67776;SDS011;54576;52.020;5.536;2023-07-02T13:45:23;7.45;;;3.40;;
67776;SDS011;54576;52.020;5.536;2023-07-02T13:47:49;8.30;;;3.83;;
67776;SDS011;54576;52.020;5.536;2023-07-02T13:50:21;8.55;;;3.85;;
67776;SDS011;54576;52.020;5.536;2023-07-02T13:52:46;9.18;;;3.95;;
67776;SDS011;54576;52.020;5.536;2023-07-02T13:55:13;8.80;;;4.18;;
67776;SDS011;54576;52.020;5.536;2023-07-02T13:57:38;14.32;;;3.92;;
67776;SDS011;54576;52.020;5.536;2023-07-02T14:00:04;9.63;;;3.80;;
67776;SDS011;54576;52.020;5.536;2023-07-02T14:02:30;9.38;;;4.50;;
67776;SDS011;54576;52.020;5.536;2023-07-02T14:04:57;11.23;;;4.45;;
67776;SDS011;54576;52.020;5.536;2023-07-02T14:07:23;16.80;;;4.20;;
67776;SDS011;54576;52.020;5.536;2023-07-02T14:09:49;14.82;;;4.90;;
67776;SDS011;54576;52.020;5.536;2023-07-02T14:12:15;11.05;;;4.53;;
67776;SDS011;54576;52.020;5.536;2023-07-02T14:14:41;9.75;;;4.10;;
67776;SDS011;54576;52.020;5.536;2023-07-02T14:17:06;7.50;;;3.90;;
67776;SDS011;54576;52.020;5.536;2023-07-02T14:19:32;10.07;;;3.80;;
67776;SDS011;54576;52.020;5.536;2023-07-02T14:21:58;13.20;;;4.13;;
67776;SDS011;54576;52.020;5.536;2023-07-02T14:24:24;9.18;;;3.45;;
67776;SDS011;54576;52.020;5.536;2023-07-02T14:26:51;12.77;;;3.92;;
67776;SDS011;54576;52.020;5.536;2023-07-02T14:29:16;8.65;;;4.15;;
67776;SDS011;54576;52.020;5.536;2023-07-02T14:31:43;17.65;;;4.53;;
67776;SDS011;54576;52.020;5.536;2023-07-02T14:34:09;19.55;;;5.00;;
67776;SDS011;54576;52.020;5.536;2023-07-02T14:36:35;13.73;;;4.28;;
67776;SDS011;54576;52.020;5.536;2023-07-02T14:39:01;8.55;;;4.68;;
67776;SDS011;54576;52.020;5.536;2023-07-02T14:41:26;8.88;;;4.85;;
67776;SDS011;54576;52.020;5.536;2023-07-02T14:43:52;16.30;;;5.05;;
67776;SDS011;54576;52.020;5.536;2023-07-02T14:46:18;10.25;;;4.43;;
67776;SDS011;54576;52.020;5.536;2023-07-02T14:48:43;11.23;;;4.35;;